64.7°F
Current conditions from King Hill
Updated every 5 minutes
 
  Thursday August 21, 2014

Station Historical Data
Daily Summary for April 5, 2012 Units:  Metric    English   Both
« Previous Day
Next Day »
Daily Weekly Monthly Yearly Custom
  High: Low: Average:
Temperature: 4.4 °C -0.7 °C 2 °C
Dew Point: -1.8 °C -6.2 °C -4.7 °C
Humidity: 81% 49% 62%
Wind Speed: 16.1km/h 1.6km/h 6.8km/h
Wind Gust: 32.2km/h - -
Wind- - WNW
Pressure: 1011.4 hPa 1004.3 hPa -
Precipitation: 0.5 mm    
Historical Graphs
 
 
Tabular Data for April 5, 2012
Time Temperature Dew Point Pressure Wind Wind Speed Wind Gust Humidity Daily Rainfall
00:05 2.1 °C -2.1 °C 1004.3 hPa NNW 1.6 km/h 14.5 km/h 74% 0 mm
00:10 2.1 °C -2.1 °C 1004.3 hPa NNW 4.8 km/h 14.5 km/h 74% 0 mm
00:14 2.1 °C -2.3 °C 1004.3 hPa NNW 4.8 km/h 16.1 km/h 73% 0 mm
00:19 2.1 °C -2.1 °C 1004.3 hPa Calm   16.1 km/h 74% 0 mm
00:24 2.1 °C -2.1 °C 1004.6 hPa NNW 1.6 km/h 6.4 km/h 74% 0 mm
00:29 2.1 °C -2.3 °C 1004.6 hPa North 3.2 km/h 14.5 km/h 73% 0 mm
00:34 2.1 °C -2.3 °C 1004.6 hPa NNE 1.6 km/h 14.5 km/h 73% 0 mm
00:39 2 °C -2.3 °C 1004.6 hPa NNE 1.6 km/h 14.5 km/h 73% 0 mm
00:44 2 °C -1.8 °C 1004.6 hPa Calm   14.5 km/h 76% 0 mm
00:49 2.1 °C -2.7 °C 1004.6 hPa North 3.2 km/h 24.1 km/h 71% 0 mm
00:54 2.1 °C -2.7 °C 1004.6 hPa Calm   24.1 km/h 71% 0 mm
00:59 2 °C -2.5 °C 1004.6 hPa Calm   8 km/h 72% 0 mm
01:04 1.9 °C -2.6 °C 1005 hPa Calm   6.4 km/h 72% 0 mm
01:09 1.8 °C -2.7 °C 1005 hPa Calm   6.4 km/h 72% 0 mm
01:14 1.8 °C -2.9 °C 1005 hPa NNE 3.2 km/h 12.9 km/h 71% 0 mm
01:19 1.8 °C -2.9 °C 1005 hPa North 1.6 km/h 12.9 km/h 71% 0 mm
01:24 1.7 °C -3 °C 1005 hPa North 1.6 km/h 12.9 km/h 71% 0 mm
01:29 1.7 °C -3 °C 1005 hPa Calm   12.9 km/h 71% 0 mm
01:34 1.6 °C -3.1 °C 1005 hPa NNE 1.6 km/h 11.3 km/h 71% 0 mm
01:39 1.5 °C -3.4 °C 1005.3 hPa North 4.8 km/h 16.1 km/h 70% 0 mm
01:49 1.4 °C -3.4 °C 1005.3 hPa NNE 1.6 km/h 19.3 km/h 70% 0 mm
01:54 1.4 °C -3.5 °C 1005.3 hPa North 3.2 km/h 11.3 km/h 70% 0 mm
01:59 1.4 °C -3.5 °C 1005.3 hPa Calm   11.3 km/h 70% 0 mm
02:04 1.4 °C -3.5 °C 1005.3 hPa Calm   8 km/h 70% 0 mm
02:09 1.3 °C -3.7 °C 1005.3 hPa NNW 3.2 km/h 12.9 km/h 69% 0 mm
02:14 1.4 °C -3.5 °C 1005.3 hPa NNW 1.6 km/h 12.9 km/h 70% 0 mm
02:19 1.3 °C -3.6 °C 1005.6 hPa North 1.6 km/h 9.7 km/h 70% 0 mm
02:24 1.3 °C -3.6 °C 1005.6 hPa NNE 3.2 km/h 17.7 km/h 70% 0 mm
02:29 1.3 °C -3.6 °C 1005.6 hPa NNW 4.8 km/h 17.7 km/h 70% 0 mm
02:34 1.3 °C -3.6 °C 1005.6 hPa Calm   17.7 km/h 70% 0 mm
02:39 1.3 °C -3.3 °C 1005.6 hPa North 1.6 km/h 14.5 km/h 71% 0 mm
02:44 1.2 °C -3.7 °C 1005.6 hPa NNW 1.6 km/h 19.3 km/h 70% 0 mm
02:49 1.1 °C -3.8 °C 1005.6 hPa NNW 8 km/h 19.3 km/h 70% 0 mm
02:54 1.1 °C -4 °C 1005.6 hPa NNW 4.8 km/h 19.3 km/h 69% 0 mm
02:59 1 °C -4.2 °C 1005.6 hPa North 3.2 km/h 19.3 km/h 68% 0 mm
03:05 0.9 °C -4.3 °C 1005.6 hPa North 4.8 km/h 19.3 km/h 68% 0 mm
03:14 0.8 °C -4.6 °C 1005.6 hPa North 1.6 km/h 29 km/h 67% 0 mm
03:19 0.8 °C -4.4 °C 1005.6 hPa North 3.2 km/h 12.9 km/h 68% 0 mm
03:24 0.8 °C -4.4 °C 1005.6 hPa Calm   12.9 km/h 68% 0 mm
03:29 0.8 °C -4.4 °C 1005.6 hPa Calm   12.9 km/h 68% 0 mm
03:34 0.8 °C -4.4 °C 1005.6 hPa Calm   12.9 km/h 68% 0 mm
03:39 0.8 °C -4.7 °C 1005.6 hPa NNW 3.2 km/h 12.9 km/h 67% 0 mm
03:45 0.7 °C -4.5 °C 1005.6 hPa North 6.4 km/h 12.9 km/h 68% 0 mm
03:54 0.7 °C -4.5 °C 1006 hPa North 3.2 km/h 12.9 km/h 68% 0 mm
03:59 0.7 °C -4.5 °C 1006 hPa NNW 3.2 km/h 12.9 km/h 68% 0 mm
04:04 0.7 °C -4.4 °C 1006 hPa NNW 3.2 km/h 11.3 km/h 69% 0 mm
04:14 0.7 °C -4.8 °C 1006 hPa NNE 4.8 km/h 25.7 km/h 67% 0 mm
04:19 0.6 °C -4.6 °C 1006 hPa Calm   25.7 km/h 68% 0 mm
04:24 0.6 °C -5 °C 1006 hPa NNE 6.4 km/h 19.3 km/h 66% 0 mm
04:29 0.6 °C -5.1 °C 1006 hPa NNW 3.2 km/h 19.3 km/h 66% 0 mm
04:35 0.6 °C -5.3 °C 1006.3 hPa Calm   16.1 km/h 65% 0 mm
04:39 0.6 °C -5.3 °C 1006.3 hPa Calm   12.9 km/h 65% 0 mm
04:44 0.5 °C -5.3 °C 1006.3 hPa North 1.6 km/h 11.3 km/h 65% 0 mm
04:54 0.4 °C -5.4 °C 1006.3 hPa NW 1.6 km/h 8 km/h 65% 0 mm
04:59 0.4 °C -5.2 °C 1006.3 hPa Calm   11.3 km/h 66% 0 mm
05:04 0.4 °C -5.2 °C 1006.7 hPa NNW 1.6 km/h 11.3 km/h 66% 0 mm
05:09 0.3 °C -5.1 °C 1006.7 hPa NNW 1.6 km/h 12.9 km/h 67% 0 mm
05:14 0.3 °C -5.1 °C 1006.7 hPa Calm   12.9 km/h 67% 0 mm
05:19 0.3 °C -4.9 °C 1006.7 hPa Calm   9.7 km/h 68% 0 mm
05:24 0.3 °C -4.7 °C 1006.7 hPa NNW 3.2 km/h 9.7 km/h 69% 0 mm
05:29 0.3 °C -4.6 °C 1006.7 hPa NW 1.6 km/h 11.3 km/h 70% 0 mm
05:35 0.3 °C -4.3 °C 1007 hPa NNW 1.6 km/h 11.3 km/h 71% 0 mm
05:45 0.4 °C -4.1 °C 1007 hPa NNW 1.6 km/h 12.9 km/h 72% 0 mm
05:54 0.4 °C -4.1 °C 1007 hPa NW 1.6 km/h 12.9 km/h 72% 0 mm
06:00 0.4 °C -4.1 °C 1007 hPa NW 3.2 km/h 12.9 km/h 72% 0 mm
06:10 0.3 °C -3.9 °C 1007.3 hPa NW 4.8 km/h 20.9 km/h 73% 0 mm
06:19 0.1 °C -4.2 °C 1007.3 hPa NNW 8 km/h 27.4 km/h 73% 0.3 mm
06:24 0.1 °C -4.4 °C 1007.7 hPa NNW 16.1 km/h 25.7 km/h 72% 0.3 mm
06:34 0 °C -4.3 °C 1007.7 hPa NNW 4.8 km/h 20.9 km/h 73% 0.3 mm
06:39 0 °C -4.3 °C 1007.7 hPa NNW 3.2 km/h 20.9 km/h 73% 0.3 mm
06:49 0 °C -4.1 °C 1007.7 hPa North 3.2 km/h 27.4 km/h 74% 0.3 mm
07:00 -0.3 °C -3.8 °C 1008 hPa NNE 3.2 km/h 14.5 km/h 77% 0.3 mm
07:09 -0.6 °C -3.6 °C 1008 hPa NNE 1.6 km/h 9.7 km/h 80% 0.3 mm
07:20 -0.7 °C -3.5 °C 1008.4 hPa NNW 4.8 km/h 12.9 km/h 81% 0.3 mm
07:30 -0.7 °C -3.6 °C 1008.4 hPa NW 4.8 km/h 16.1 km/h 81% 0.3 mm
07:39 -0.6 °C -3.6 °C 1008.4 hPa NNW 4.8 km/h 11.3 km/h 80% 0.3 mm
07:44 -0.6 °C -3.6 °C 1008.7 hPa NW 6.4 km/h 11.3 km/h 80% 0.3 mm
07:49 -0.5 °C -3.5 °C 1008.7 hPa Calm   11.3 km/h 80% 0.3 mm
07:54 -0.3 °C -3.6 °C 1008.7 hPa Calm   12.9 km/h 79% 0.3 mm
08:00 -0.3 °C -3.8 °C 1009 hPa NNW 6.4 km/h 17.7 km/h 77% 0.3 mm
08:09 -0.2 °C -4.4 °C 1009 hPa NNW 9.7 km/h 25.7 km/h 73% 0.3 mm
08:14 -0.2 °C -4.4 °C 1009 hPa NNW 4.8 km/h 22.5 km/h 73% 0.3 mm
08:24 -0.1 °C -4.4 °C 1009 hPa NW 8 km/h 20.9 km/h 73% 0.3 mm
08:29 -0.1 °C -4.3 °C 1009 hPa NW 8 km/h 20.9 km/h 73% 0.3 mm
08:34 -0.1 °C -4.3 °C 1009 hPa NNW 6.4 km/h 20.9 km/h 73% 0.3 mm
08:39 0 °C -4.4 °C 1009.4 hPa NW 8 km/h 24.1 km/h 72% 0.3 mm
08:44 0.1 °C -4.4 °C 1009.4 hPa NW 6.4 km/h 27.4 km/h 72% 0.3 mm
08:49 0.2 °C -4.4 °C 1009.4 hPa NNW 9.7 km/h 27.4 km/h 71% 0.3 mm
08:54 0.2 °C -4.4 °C 1009.4 hPa NNW 6.4 km/h 17.7 km/h 71% 0.3 mm
08:59 0.2 °C -4.4 °C 1009.4 hPa NNW 8 km/h 24.1 km/h 71% 0.3 mm
09:04 0.3 °C -4.6 °C 1009.4 hPa NW 9.7 km/h 24.1 km/h 70% 0.3 mm
09:09 0.3 °C -4.5 °C 1009.4 hPa NNW 9.7 km/h 25.7 km/h 70% 0.3 mm
09:14 0.4 °C -4.6 °C 1009.4 hPa NNW 6.4 km/h 25.7 km/h 69% 0.3 mm
09:19 0.6 °C -4.7 °C 1009.4 hPa NNW 9.7 km/h 22.5 km/h 68% 0.3 mm
09:24 0.7 °C -4.4 °C 1009.7 hPa NW 1.6 km/h 22.5 km/h 69% 0.3 mm
09:29 0.8 °C -4.4 °C 1009.7 hPa NW 11.3 km/h 19.3 km/h 68% 0.3 mm
09:34 0.8 °C -4.6 °C 1009.7 hPa NNW 8 km/h 19.3 km/h 67% 0.3 mm
09:44 0.8 °C -4.4 °C 1009.7 hPa NW 9.7 km/h 24.1 km/h 68% 0.3 mm
09:49 0.9 °C -4.6 °C 1009.7 hPa NNW 9.7 km/h 25.7 km/h 67% 0.3 mm
09:54 0.9 °C -4.3 °C 1009.7 hPa North 3.2 km/h 25.7 km/h 68% 0.3 mm
09:59 1.1 °C -4.4 °C 1009.7 hPa NW 14.5 km/h 25.7 km/h 67% 0.3 mm
10:04 1.1 °C -4.6 °C 1009.7 hPa NNW 9.7 km/h 25.7 km/h 66% 0.3 mm
10:09 1.3 °C -4.4 °C 1009.7 hPa NW 8 km/h 16.1 km/h 66% 0.3 mm
10:14 1.2 °C -4.6 °C 1009.7 hPa NW 11.3 km/h 25.7 km/h 65% 0.3 mm
10:19 1.1 °C -4.7 °C 1010 hPa NW 9.7 km/h 27.4 km/h 65% 0.3 mm
10:24 1.3 °C -4.4 °C 1010 hPa NW 9.7 km/h 27.4 km/h 66% 0.3 mm
10:29 1.3 °C -4.5 °C 1010 hPa NW 11.3 km/h 24.1 km/h 65% 0.3 mm
10:39 1.3 °C -4.1 °C 1010 hPa NNW 1.6 km/h 19.3 km/h 67% 0.3 mm
10:44 1.4 °C -4.4 °C 1010 hPa NW 4.8 km/h 14.5 km/h 65% 0.3 mm
10:49 1.4 °C -4.9 °C 1010 hPa NW 14.5 km/h 27.4 km/h 63% 0.3 mm
10:55 1.3 °C -4.8 °C 1010 hPa NNW 9.7 km/h 27.4 km/h 64% 0.3 mm
11:00 1.2 °C -4.7 °C 1010 hPa NNW 3.2 km/h 19.3 km/h 65% 0.3 mm
11:09 0.9 °C -4.7 °C 1010 hPa NNW 8 km/h 19.3 km/h 66% 0.3 mm
11:14 0.9 °C -4.7 °C 1010.4 hPa NW 6.4 km/h 25.7 km/h 66% 0.3 mm
11:19 0.8 °C -4.8 °C 1010.4 hPa NW 9.7 km/h 25.7 km/h 66% 0.3 mm
11:24 0.8 °C -4.6 °C 1010.4 hPa NNW 4.8 km/h 19.3 km/h 67% 0.3 mm
11:29 0.9 °C -4.6 °C 1010.4 hPa NW 6.4 km/h 17.7 km/h 67% 0.3 mm
11:35 1 °C -4.7 °C 1010.4 hPa North 4.8 km/h 20.9 km/h 66% 0.3 mm
11:40 1.1 °C -4.6 °C 1010.4 hPa NW 12.9 km/h 24.1 km/h 66% 0.3 mm
11:49 1.1 °C -5 °C 1010.4 hPa WNW 11.3 km/h 20.9 km/h 64% 0.3 mm
11:59 1.3 °C -4.5 °C 1010.4 hPa NNW 8 km/h 20.9 km/h 65% 0.3 mm
12:09 1.5 °C -4.6 °C 1010.4 hPa WNW 16.1 km/h 27.4 km/h 64% 0.5 mm
12:19 1.8 °C -4.1 °C 1010.4 hPa NW 8 km/h 19.3 km/h 65% 0.5 mm
12:24 1.9 °C -4.6 °C 1010.4 hPa NW 11.3 km/h 25.7 km/h 62% 0.5 mm
12:29 2 °C -4.5 °C 1010.4 hPa NNW 11.3 km/h 25.7 km/h 62% 0.5 mm
12:34 2 °C -4.5 °C 1010.4 hPa NNW 11.3 km/h 25.7 km/h 62% 0.5 mm
12:45 2.4 °C -4.6 °C 1010 hPa NW 9.7 km/h 19.3 km/h 60% 0.5 mm
12:54 2.6 °C -4.2 °C 1010 hPa NW 6.4 km/h 19.3 km/h 61% 0.5 mm
12:59 2.9 °C -4.3 °C 1010 hPa NW 9.7 km/h 20.9 km/h 59% 0.5 mm
13:05 2.9 °C -4.5 °C 1010 hPa NW 12.9 km/h 22.5 km/h 58% 0.5 mm
13:14 2.7 °C -5 °C 1010 hPa NW 12.9 km/h 24.1 km/h 57% 0.5 mm
13:19 2.7 °C -5 °C 1010 hPa NW 11.3 km/h 24.1 km/h 57% 0.5 mm
13:25 2.8 °C -4.6 °C 1010 hPa NW 9.7 km/h 24.1 km/h 58% 0.5 mm
13:35 2.8 °C -4.6 °C 1010 hPa NW 9.7 km/h 25.7 km/h 58% 0.5 mm
13:45 2.6 °C -4.9 °C 1010.4 hPa NW 14.5 km/h 25.7 km/h 58% 0.5 mm
13:54 2.2 °C -5.2 °C 1010 hPa WNW 12.9 km/h 27.4 km/h 58% 0.5 mm
13:59 2.3 °C -4.8 °C 1010 hPa WNW 9.7 km/h 22.5 km/h 59% 0.5 mm
14:04 2.6 °C -4.7 °C 1010 hPa WNW 14.5 km/h 22.5 km/h 59% 0.5 mm
14:09 2.7 °C -5.2 °C 1010 hPa WNW 16.1 km/h 24.1 km/h 56% 0.5 mm
14:19 2.7 °C -4.9 °C 1010 hPa WNW 9.7 km/h 24.1 km/h 57% 0.5 mm
14:24 2.8 °C -4.9 °C 1010 hPa NW 9.7 km/h 24.1 km/h 57% 0.5 mm
14:34 2.8 °C -4.9 °C 1010.4 hPa WNW 11.3 km/h 16.1 km/h 57% 0.5 mm
14:39 2.7 °C -4.9 °C 1010 hPa West 11.3 km/h 19.3 km/h 57% 0.5 mm
14:44 2.7 °C -4.8 °C 1010.4 hPa WNW 11.3 km/h 20.9 km/h 58% 0.5 mm
14:50 2.7 °C -4.8 °C 1010.4 hPa WNW 9.7 km/h 20.9 km/h 58% 0.5 mm
14:59 2.9 °C -4.8 °C 1010.4 hPa WNW 14.5 km/h 22.5 km/h 57% 0.5 mm
15:04 2.7 °C -4.8 °C 1010.4 hPa NW 11.3 km/h 22.5 km/h 58% 0.5 mm
15:09 2.7 °C -4.5 °C 1010.4 hPa NNW 8 km/h 22.5 km/h 59% 0.5 mm
15:14 2.8 °C -4.6 °C 1010.4 hPa WNW 11.3 km/h 24.1 km/h 58% 0.5 mm
15:19 3.3 °C -3.9 °C 1010.4 hPa WNW 11.3 km/h 24.1 km/h 59% 0.5 mm
15:24 3.6 °C -4.2 °C 1010.4 hPa WNW 11.3 km/h 20.9 km/h 57% 0.5 mm
15:29 3.4 °C -4.5 °C 1010 hPa NW 4.8 km/h 20.9 km/h 56% 0.5 mm
15:39 3.2 °C -5 °C 1010.4 hPa WNW 8 km/h 27.4 km/h 55% 0.5 mm
15:45 3.1 °C -5.1 °C 1010.4 hPa WNW 8 km/h 27.4 km/h 55% 0.5 mm
15:54 3.4 °C -5 °C 1010 hPa WNW 11.3 km/h 24.1 km/h 54% 0.5 mm
15:59 3.5 °C -4.9 °C 1010.4 hPa NNW 9.7 km/h 24.1 km/h 54% 0.5 mm
16:04 3.4 °C -5.5 °C 1010.4 hPa NNW 12.9 km/h 27.4 km/h 52% 0.5 mm
16:09 3.3 °C -5.8 °C 1010.4 hPa WNW 8 km/h 27.4 km/h 51% 0.5 mm
16:14 3.3 °C -5.4 °C 1010.4 hPa NW 6.4 km/h 19.3 km/h 53% 0.5 mm
16:20 3.5 °C -4.9 °C 1010.4 hPa NNW 8 km/h 17.7 km/h 54% 0.5 mm
16:30 3.7 °C -5.3 °C 1010 hPa NW 3.2 km/h 20.9 km/h 52% 0.5 mm
16:39 3.8 °C -5.4 °C 1010 hPa NW 12.9 km/h 27.4 km/h 51% 0.5 mm
16:44 3.8 °C -5.1 °C 1010 hPa NNW 8 km/h 27.4 km/h 52% 0.5 mm
16:49 3.8 °C -5.4 °C 1010.4 hPa NNW 9.7 km/h 27.4 km/h 51% 0.5 mm
16:59 3.8 °C -5.7 °C 1010 hPa WNW 14.5 km/h 22.5 km/h 50% 0.5 mm
17:04 3.8 °C -5.7 °C 1010 hPa NW 11.3 km/h 22.5 km/h 50% 0.5 mm
17:09 4 °C -5.2 °C 1010 hPa West 8 km/h 17.7 km/h 51% 0.5 mm
17:14 4.1 °C -5.4 °C 1010 hPa NNW 8 km/h 20.9 km/h 50% 0.5 mm
17:19 4.1 °C -5.4 °C 1010 hPa NW 6.4 km/h 20.9 km/h 50% 0.5 mm
17:24 4.2 °C -5.6 °C 1010 hPa NW 16.1 km/h 32.2 km/h 49% 0.5 mm
17:30 4 °C -5.8 °C 1010 hPa WNW 9.7 km/h 32.2 km/h 49% 0.5 mm
17:39 4.2 °C -5 °C 1010 hPa Calm   16.1 km/h 51% 0.5 mm
17:45 4.4 °C -5.4 °C 1010 hPa WNW 4.8 km/h 11.3 km/h 49% 0.5 mm
17:55 4.2 °C -5.3 °C 1010 hPa WNW 4.8 km/h 16.1 km/h 50% 0.5 mm
18:04 4.2 °C -5.3 °C 1010 hPa NW 3.2 km/h 11.3 km/h 50% 0.5 mm
18:09 4.2 °C -5.3 °C 1010 hPa NW 4.8 km/h 12.9 km/h 50% 0.5 mm
18:15 4.1 °C -5.7 °C 1010 hPa WNW 4.8 km/h 14.5 km/h 49% 0.5 mm
18:24 4.1 °C -5.7 °C 1010.4 hPa NW 8 km/h 16.1 km/h 49% 0.5 mm
18:29 4.1 °C -5.7 °C 1010.4 hPa NW 9.7 km/h 17.7 km/h 49% 0.5 mm
18:35 4.1 °C -5.4 °C 1010.4 hPa NW 4.8 km/h 17.7 km/h 50% 0.5 mm
18:40 4.1 °C -5.7 °C 1010.4 hPa NW 6.4 km/h 16.1 km/h 49% 0.5 mm
18:45 4.1 °C -5.7 °C 1010.4 hPa NW 4.8 km/h 16.1 km/h 49% 0.5 mm
18:54 4.1 °C -5.7 °C 1010.4 hPa NW 6.4 km/h 17.7 km/h 49% 0.5 mm
19:00 4.2 °C -5.6 °C 1010.4 hPa NW 11.3 km/h 20.9 km/h 49% 0.5 mm
19:09 4.1 °C -5.7 °C 1010.7 hPa NW 1.6 km/h 17.7 km/h 49% 0.5 mm
19:14 4 °C -5.8 °C 1010.7 hPa NW 8 km/h 19.3 km/h 49% 0.5 mm
19:19 4 °C -5.8 °C 1010.7 hPa NNW 8 km/h 19.3 km/h 49% 0.5 mm
19:24 4 °C -5.5 °C 1010.7 hPa NW 3.2 km/h 17.7 km/h 50% 0.5 mm
19:29 4 °C -5.8 °C 1010.7 hPa NW 8 km/h 16.1 km/h 49% 0.5 mm
19:34 4.1 °C -5.4 °C 1010.7 hPa NW 8 km/h 17.7 km/h 50% 0.5 mm
19:39 4.1 °C -5.7 °C 1010.7 hPa NW 8 km/h 17.7 km/h 49% 0.5 mm
19:44 4.1 °C -5.4 °C 1010.7 hPa NNW 4.8 km/h 16.1 km/h 50% 0.5 mm
19:49 4.1 °C -5.7 °C 1010.7 hPa NW 8 km/h 19.3 km/h 49% 0.5 mm
19:59 4.1 °C -5.4 °C 1010.7 hPa NW 4.8 km/h 14.5 km/h 50% 0.5 mm
20:04 4 °C -5.5 °C 1010.7 hPa NNW 3.2 km/h 14.5 km/h 50% 0.5 mm
20:09 4 °C -5.8 °C 1010.7 hPa NW 4.8 km/h 14.5 km/h 49% 0.5 mm
20:14 4 °C -5.5 °C 1011.1 hPa NW 1.6 km/h 14.5 km/h 50% 0.5 mm
20:19 3.9 °C -5.6 °C 1011.1 hPa NW 6.4 km/h 16.1 km/h 50% 0.5 mm
20:24 3.9 °C -5.6 °C 1011.1 hPa NW 6.4 km/h 22.5 km/h 50% 0.5 mm
20:30 4 °C -5.5 °C 1011.1 hPa NNW 8 km/h 22.5 km/h 50% 0.5 mm
20:39 3.9 °C -5.8 °C 1011.1 hPa NNW 4.8 km/h 14.5 km/h 49% 0.5 mm
20:44 3.9 °C -5.6 °C 1011.1 hPa NNW 8 km/h 17.7 km/h 50% 0.5 mm
20:50 3.9 °C -5.6 °C 1011.1 hPa NW 6.4 km/h 17.7 km/h 50% 0.5 mm
20:59 3.9 °C -5.8 °C 1011.1 hPa NW 8 km/h 22.5 km/h 49% 0.5 mm
21:04 3.9 °C -5.8 °C 1011.1 hPa NNW 8 km/h 22.5 km/h 49% 0.5 mm
21:09 3.8 °C -5.7 °C 1011.1 hPa NNW 6.4 km/h 20.9 km/h 50% 0.5 mm
21:14 3.8 °C -5.9 °C 1011.1 hPa NW 6.4 km/h 29 km/h 49% 0.5 mm
21:19 3.8 °C -5.7 °C 1011.1 hPa NW 6.4 km/h 29 km/h 50% 0.5 mm
21:25 3.7 °C -5.7 °C 1011.1 hPa NW 1.6 km/h 17.7 km/h 50% 0.5 mm
21:34 3.6 °C -5.8 °C 1011.1 hPa NW 3.2 km/h 16.1 km/h 50% 0.5 mm
21:49 3.6 °C -5.9 °C 1011.1 hPa NNW 8 km/h 17.7 km/h 50% 0.5 mm
21:54 3.5 °C -5.7 °C 1011.1 hPa NNW 3.2 km/h 17.7 km/h 51% 0.5 mm
21:59 3.4 °C -5.7 °C 1011.1 hPa NNW 1.6 km/h 17.7 km/h 51% 0.5 mm
22:05 3.4 °C -5.8 °C 1011.1 hPa NW 9.7 km/h 19.3 km/h 51% 0.5 mm
22:14 3.2 °C -5.7 °C 1011.1 hPa NNW 6.4 km/h 12.9 km/h 52% 0.5 mm
22:19 3.1 °C -6.1 °C 1011.1 hPa NW 8 km/h 20.9 km/h 51% 0.5 mm
22:25 2.9 °C -6.2 °C 1011.1 hPa NNW 4.8 km/h 20.9 km/h 51% 0.5 mm
22:30 2.8 °C -6.1 °C 1011.1 hPa NW 3.2 km/h 14.5 km/h 52% 0.5 mm
22:39 2.7 °C -5.9 °C 1011.4 hPa NNW 4.8 km/h 14.5 km/h 53% 0.5 mm
22:49 2.7 °C -5.7 °C 1011.4 hPa Calm   19.3 km/h 54% 0.5 mm
22:55 2.6 °C -5.5 °C 1011.4 hPa Calm   19.3 km/h 55% 0.5 mm
23:04 2.5 °C -5.6 °C 1011.4 hPa Calm   12.9 km/h 55% 0.5 mm
23:09 2.5 °C -5.6 °C 1011.4 hPa NNW 1.6 km/h 11.3 km/h 55% 0.5 mm
23:15 2.5 °C -5.6 °C 1011.4 hPa NNW 3.2 km/h 11.3 km/h 55% 0.5 mm
23:24 2.5 °C -5.6 °C 1011.4 hPa Calm   9.7 km/h 55% 0.5 mm
23:29 2.5 °C -5.6 °C 1011.4 hPa Calm   9.7 km/h 55% 0.5 mm
23:35 2.5 °C -5.9 °C 1011.4 hPa NNW 1.6 km/h 6.4 km/h 54% 0.5 mm
23:45 2.4 °C -5.7 °C 1011.4 hPa Calm   6.4 km/h 55% 0.5 mm
23:54 2.3 °C -5.8 °C 1011.4 hPa North 1.6 km/h 6.4 km/h 55% 0.5 mm
Westford Weather
Compliments of Weather Underground

 
 
Current Radar Loop:

Copyright © WestfordWeather.net 2007-2014. All rights reserved.